sensor_id;sensor_type;location;lat;lon;timestamp;P1;durP1;ratioP1;P2;durP2;ratioP2
47545;SDS011;50104;52.002;4.688;2023-04-07T00:02:07;8.40;;;3.55;;
47545;SDS011;50104;52.002;4.688;2023-04-07T00:07:08;7.03;;;3.42;;
47545;SDS011;50104;52.002;4.688;2023-04-07T00:12:09;10.15;;;3.42;;
47545;SDS011;50104;52.002;4.688;2023-04-07T00:17:10;11.05;;;3.65;;
47545;SDS011;50104;52.002;4.688;2023-04-07T00:22:11;8.90;;;3.30;;
47545;SDS011;50104;52.002;4.688;2023-04-07T00:27:12;7.43;;;3.13;;
47545;SDS011;50104;52.002;4.688;2023-04-07T00:32:12;6.97;;;2.60;;
47545;SDS011;50104;52.002;4.688;2023-04-07T00:37:13;8.93;;;3.17;;
47545;SDS011;50104;52.002;4.688;2023-04-07T00:42:14;9.77;;;2.85;;
47545;SDS011;50104;52.002;4.688;2023-04-07T00:47:15;8.68;;;3.13;;
47545;SDS011;50104;52.002;4.688;2023-04-07T00:52:17;8.52;;;2.92;;
47545;SDS011;50104;52.002;4.688;2023-04-07T00:57:19;7.80;;;2.65;;
47545;SDS011;50104;52.002;4.688;2023-04-07T01:02:20;5.82;;;2.22;;
47545;SDS011;50104;52.002;4.688;2023-04-07T01:07:54;8.85;;;2.55;;
47545;SDS011;50104;52.002;4.688;2023-04-07T01:13:26;6.30;;;2.63;;
47545;SDS011;50104;52.002;4.688;2023-04-07T01:18:35;8.85;;;2.55;;
47545;SDS011;50104;52.002;4.688;2023-04-07T01:23:44;8.50;;;2.08;;
47545;SDS011;50104;52.002;4.688;2023-04-07T01:28:56;8.23;;;1.80;;
47545;SDS011;50104;52.002;4.688;2023-04-07T01:34:25;8.85;;;2.30;;
47545;SDS011;50104;52.002;4.688;2023-04-07T01:39:29;5.88;;;1.65;;
47545;SDS011;50104;52.002;4.688;2023-04-07T01:44:32;10.82;;;2.60;;
47545;SDS011;50104;52.002;4.688;2023-04-07T01:49:34;8.00;;;2.30;;
47545;SDS011;50104;52.002;4.688;2023-04-07T01:54:37;12.35;;;2.63;;
47545;SDS011;50104;52.002;4.688;2023-04-07T01:59:38;8.18;;;2.30;;
47545;SDS011;50104;52.002;4.688;2023-04-07T02:04:43;10.63;;;2.78;;
47545;SDS011;50104;52.002;4.688;2023-04-07T02:09:55;15.43;;;4.10;;
47545;SDS011;50104;52.002;4.688;2023-04-07T02:15:00;9.73;;;2.78;;
47545;SDS011;50104;52.002;4.688;2023-04-07T02:20:03;7.45;;;3.08;;
47545;SDS011;50104;52.002;4.688;2023-04-07T02:25:30;12.52;;;3.17;;
47545;SDS011;50104;52.002;4.688;2023-04-07T02:30:32;11.32;;;3.20;;
47545;SDS011;50104;52.002;4.688;2023-04-07T02:35:35;10.15;;;2.92;;
47545;SDS011;50104;52.002;4.688;2023-04-07T02:40:36;9.52;;;3.00;;
47545;SDS011;50104;52.002;4.688;2023-04-07T02:45:36;11.52;;;3.13;;
47545;SDS011;50104;52.002;4.688;2023-04-07T02:50:37;11.82;;;3.30;;
47545;SDS011;50104;52.002;4.688;2023-04-07T02:55:38;9.63;;;3.13;;
47545;SDS011;50104;52.002;4.688;2023-04-07T03:00:39;9.55;;;3.50;;
47545;SDS011;50104;52.002;4.688;2023-04-07T03:05:43;7.85;;;3.35;;
47545;SDS011;50104;52.002;4.688;2023-04-07T03:10:44;11.27;;;3.88;;
47545;SDS011;50104;52.002;4.688;2023-04-07T03:15:45;12.93;;;4.80;;
47545;SDS011;50104;52.002;4.688;2023-04-07T03:20:47;12.13;;;3.95;;
47545;SDS011;50104;52.002;4.688;2023-04-07T03:25:48;9.43;;;3.67;;
47545;SDS011;50104;52.002;4.688;2023-04-07T03:30:49;13.73;;;3.97;;
47545;SDS011;50104;52.002;4.688;2023-04-07T03:35:50;6.80;;;3.00;;
47545;SDS011;50104;52.002;4.688;2023-04-07T03:40:51;11.23;;;3.58;;
47545;SDS011;50104;52.002;4.688;2023-04-07T03:45:52;8.32;;;3.92;;
47545;SDS011;50104;52.002;4.688;2023-04-07T03:50:53;8.18;;;3.45;;
47545;SDS011;50104;52.002;4.688;2023-04-07T03:55:54;6.93;;;3.10;;
47545;SDS011;50104;52.002;4.688;2023-04-07T04:00:55;13.43;;;3.28;;
47545;SDS011;50104;52.002;4.688;2023-04-07T04:05:56;13.13;;;3.28;;
47545;SDS011;50104;52.002;4.688;2023-04-07T04:10:57;6.35;;;3.08;;
47545;SDS011;50104;52.002;4.688;2023-04-07T04:15:58;7.07;;;3.00;;
47545;SDS011;50104;52.002;4.688;2023-04-07T04:20:58;8.55;;;2.70;;
47545;SDS011;50104;52.002;4.688;2023-04-07T04:25:59;10.00;;;3.08;;
47545;SDS011;50104;52.002;4.688;2023-04-07T04:31:02;6.60;;;2.45;;
47545;SDS011;50104;52.002;4.688;2023-04-07T04:36:03;4.45;;;2.30;;
47545;SDS011;50104;52.002;4.688;2023-04-07T04:41:04;4.15;;;1.95;;
47545;SDS011;50104;52.002;4.688;2023-04-07T04:46:05;4.35;;;2.00;;
47545;SDS011;50104;52.002;4.688;2023-04-07T04:51:06;6.40;;;1.70;;
47545;SDS011;50104;52.002;4.688;2023-04-07T04:56:07;5.88;;;2.80;;
47545;SDS011;50104;52.002;4.688;2023-04-07T05:01:08;4.90;;;2.53;;
47545;SDS011;50104;52.002;4.688;2023-04-07T05:06:09;6.32;;;2.10;;
47545;SDS011;50104;52.002;4.688;2023-04-07T05:11:10;4.78;;;2.15;;
47545;SDS011;50104;52.002;4.688;2023-04-07T05:16:12;5.50;;;2.13;;
47545;SDS011;50104;52.002;4.688;2023-04-07T05:21:12;7.65;;;2.10;;
47545;SDS011;50104;52.002;4.688;2023-04-07T05:26:13;5.25;;;1.98;;
47545;SDS011;50104;52.002;4.688;2023-04-07T05:31:14;6.43;;;2.22;;
47545;SDS011;50104;52.002;4.688;2023-04-07T05:36:15;4.70;;;1.73;;
47545;SDS011;50104;52.002;4.688;2023-04-07T05:41:16;6.78;;;2.10;;
47545;SDS011;50104;52.002;4.688;2023-04-07T05:46:17;6.90;;;2.35;;
47545;SDS011;50104;52.002;4.688;2023-04-07T05:51:18;5.93;;;1.58;;
47545;SDS011;50104;52.002;4.688;2023-04-07T05:56:19;5.93;;;2.28;;
47545;SDS011;50104;52.002;4.688;2023-04-07T06:01:21;6.53;;;2.35;;
47545;SDS011;50104;52.002;4.688;2023-04-07T06:06:21;5.97;;;1.95;;
47545;SDS011;50104;52.002;4.688;2023-04-07T06:11:24;9.40;;;2.00;;
47545;SDS011;50104;52.002;4.688;2023-04-07T06:16:26;6.30;;;2.20;;
47545;SDS011;50104;52.002;4.688;2023-04-07T06:21:27;8.57;;;2.30;;
47545;SDS011;50104;52.002;4.688;2023-04-07T06:26:28;3.28;;;2.25;;
47545;SDS011;50104;52.002;4.688;2023-04-07T06:31:29;7.35;;;1.88;;
47545;SDS011;50104;52.002;4.688;2023-04-07T06:36:30;6.80;;;2.50;;
47545;SDS011;50104;52.002;4.688;2023-04-07T06:41:32;4.60;;;1.80;;
47545;SDS011;50104;52.002;4.688;2023-04-07T06:46:33;3.00;;;1.30;;
47545;SDS011;50104;52.002;4.688;2023-04-07T06:51:34;8.40;;;1.58;;
47545;SDS011;50104;52.002;4.688;2023-04-07T06:56:35;3.63;;;1.65;;
47545;SDS011;50104;52.002;4.688;2023-04-07T07:01:36;5.68;;;1.38;;
47545;SDS011;50104;52.002;4.688;2023-04-07T07:06:36;11.05;;;1.58;;
47545;SDS011;50104;52.002;4.688;2023-04-07T07:11:37;3.97;;;1.30;;
47545;SDS011;50104;52.002;4.688;2023-04-07T07:16:39;5.10;;;1.52;;
47545;SDS011;50104;52.002;4.688;2023-04-07T07:21:40;6.35;;;2.03;;
47545;SDS011;50104;52.002;4.688;2023-04-07T07:26:41;3.53;;;1.20;;
47545;SDS011;50104;52.002;4.688;2023-04-07T07:31:42;4.60;;;1.58;;
47545;SDS011;50104;52.002;4.688;2023-04-07T07:36:43;5.20;;;1.20;;
47545;SDS011;50104;52.002;4.688;2023-04-07T07:41:44;4.70;;;1.52;;
47545;SDS011;50104;52.002;4.688;2023-04-07T07:46:45;5.82;;;1.48;;
47545;SDS011;50104;52.002;4.688;2023-04-07T07:51:46;4.25;;;1.60;;
47545;SDS011;50104;52.002;4.688;2023-04-07T07:56:47;5.97;;;1.40;;
47545;SDS011;50104;52.002;4.688;2023-04-07T08:01:48;10.63;;;2.10;;
47545;SDS011;50104;52.002;4.688;2023-04-07T08:06:49;4.82;;;1.73;;
47545;SDS011;50104;52.002;4.688;2023-04-07T08:11:50;3.80;;;1.63;;
47545;SDS011;50104;52.002;4.688;2023-04-07T08:16:51;8.48;;;2.03;;
47545;SDS011;50104;52.002;4.688;2023-04-07T08:21:52;3.90;;;1.50;;
47545;SDS011;50104;52.002;4.688;2023-04-07T08:26:53;7.22;;;1.70;;
47545;SDS011;50104;52.002;4.688;2023-04-07T08:31:54;4.80;;;1.80;;
47545;SDS011;50104;52.002;4.688;2023-04-07T08:36:55;5.30;;;2.00;;
47545;SDS011;50104;52.002;4.688;2023-04-07T08:41:56;4.63;;;1.75;;
47545;SDS011;50104;52.002;4.688;2023-04-07T08:46:57;8.23;;;1.95;;
47545;SDS011;50104;52.002;4.688;2023-04-07T08:52:00;3.60;;;1.55;;
47545;SDS011;50104;52.002;4.688;2023-04-07T08:57:06;6.82;;;2.00;;
47545;SDS011;50104;52.002;4.688;2023-04-07T09:02:07;8.85;;;1.40;;
47545;SDS011;50104;52.002;4.688;2023-04-07T09:07:09;9.77;;;1.90;;
47545;SDS011;50104;52.002;4.688;2023-04-07T09:12:10;8.20;;;2.03;;
47545;SDS011;50104;52.002;4.688;2023-04-07T09:17:11;5.53;;;1.55;;
47545;SDS011;50104;52.002;4.688;2023-04-07T09:22:12;8.05;;;1.60;;
47545;SDS011;50104;52.002;4.688;2023-04-07T09:27:14;6.10;;;2.10;;
47545;SDS011;50104;52.002;4.688;2023-04-07T09:32:34;6.50;;;1.42;;
47545;SDS011;50104;52.002;4.688;2023-04-07T09:37:37;3.60;;;1.02;;
47545;SDS011;50104;52.002;4.688;2023-04-07T09:42:45;10.65;;;2.10;;
47545;SDS011;50104;52.002;4.688;2023-04-07T09:47:47;10.50;;;2.20;;
47545;SDS011;50104;52.002;4.688;2023-04-07T09:52:48;9.27;;;1.92;;
47545;SDS011;50104;52.002;4.688;2023-04-07T09:57:53;7.38;;;2.10;;
47545;SDS011;50104;52.002;4.688;2023-04-07T10:02:55;10.07;;;1.92;;
47545;SDS011;50104;52.002;4.688;2023-04-07T10:07:56;11.13;;;1.77;;
47545;SDS011;50104;52.002;4.688;2023-04-07T10:12:58;9.57;;;2.10;;
47545;SDS011;50104;52.002;4.688;2023-04-07T10:17:59;7.03;;;1.50;;
47545;SDS011;50104;52.002;4.688;2023-04-07T10:23:02;7.63;;;2.55;;
47545;SDS011;50104;52.002;4.688;2023-04-07T10:29:01;12.90;;;3.38;;
47545;SDS011;50104;52.002;4.688;2023-04-07T10:34:07;9.77;;;1.73;;
47545;SDS011;50104;52.002;4.688;2023-04-07T10:49:40;7.95;;;2.05;;
47545;SDS011;50104;52.002;4.688;2023-04-07T11:01:28;5.85;;;2.58;;
47545;SDS011;50104;52.002;4.688;2023-04-07T11:06:09;12.93;;;3.03;;
47545;SDS011;50104;52.002;4.688;2023-04-07T11:11:12;6.18;;;1.52;;
47545;SDS011;50104;52.002;4.688;2023-04-07T11:16:16;6.50;;;1.52;;
47545;SDS011;50104;52.002;4.688;2023-04-07T11:21:18;7.25;;;1.92;;
47545;SDS011;50104;52.002;4.688;2023-04-07T11:26:19;4.35;;;1.58;;
47545;SDS011;50104;52.002;4.688;2023-04-07T11:31:21;5.47;;;1.90;;
47545;SDS011;50104;52.002;4.688;2023-04-07T11:36:32;8.23;;;2.13;;
47545;SDS011;50104;52.002;4.688;2023-04-07T11:41:44;11.48;;;3.28;;
47545;SDS011;50104;52.002;4.688;2023-04-07T11:46:53;7.32;;;1.67;;
47545;SDS011;50104;52.002;4.688;2023-04-07T11:52:02;7.78;;;2.72;;
47545;SDS011;50104;52.002;4.688;2023-04-07T11:57:05;5.85;;;2.05;;
47545;SDS011;50104;52.002;4.688;2023-04-07T12:02:09;9.55;;;2.60;;
47545;SDS011;50104;52.002;4.688;2023-04-07T12:07:10;15.50;;;2.63;;
47545;SDS011;50104;52.002;4.688;2023-04-07T12:12:11;9.73;;;2.63;;
47545;SDS011;50104;52.002;4.688;2023-04-07T12:17:22;13.27;;;2.33;;
47545;SDS011;50104;52.002;4.688;2023-04-07T12:22:25;8.43;;;2.35;;
47545;SDS011;50104;52.002;4.688;2023-04-07T12:27:26;7.38;;;2.03;;
47545;SDS011;50104;52.002;4.688;2023-04-07T12:32:27;6.20;;;2.35;;
47545;SDS011;50104;52.002;4.688;2023-04-07T12:37:32;9.05;;;2.20;;
47545;SDS011;50104;52.002;4.688;2023-04-07T12:42:32;2.95;;;1.77;;
47545;SDS011;50104;52.002;4.688;2023-04-07T12:47:33;9.02;;;2.33;;
47545;SDS011;50104;52.002;4.688;2023-04-07T12:52:34;10.48;;;2.83;;
47545;SDS011;50104;52.002;4.688;2023-04-07T12:57:35;8.10;;;1.83;;
47545;SDS011;50104;52.002;4.688;2023-04-07T13:02:37;6.53;;;2.10;;
47545;SDS011;50104;52.002;4.688;2023-04-07T13:07:37;5.82;;;2.13;;
47545;SDS011;50104;52.002;4.688;2023-04-07T13:12:38;7.97;;;2.60;;
47545;SDS011;50104;52.002;4.688;2023-04-07T13:17:40;7.35;;;1.77;;
47545;SDS011;50104;52.002;4.688;2023-04-07T13:22:41;8.68;;;2.63;;
47545;SDS011;50104;52.002;4.688;2023-04-07T13:27:42;8.63;;;2.63;;
47545;SDS011;50104;52.002;4.688;2023-04-07T13:32:43;13.93;;;3.47;;
47545;SDS011;50104;52.002;4.688;2023-04-07T13:37:44;8.75;;;2.10;;
47545;SDS011;50104;52.002;4.688;2023-04-07T13:42:45;6.30;;;2.35;;
47545;SDS011;50104;52.002;4.688;2023-04-07T13:47:46;5.72;;;2.35;;
47545;SDS011;50104;52.002;4.688;2023-04-07T13:52:46;5.07;;;2.67;;
47545;SDS011;50104;52.002;4.688;2023-04-07T13:57:47;11.85;;;2.80;;
47545;SDS011;50104;52.002;4.688;2023-04-07T14:02:48;10.75;;;2.75;;
47545;SDS011;50104;52.002;4.688;2023-04-07T14:07:49;13.73;;;2.50;;
47545;SDS011;50104;52.002;4.688;2023-04-07T14:12:50;13.38;;;2.83;;
47545;SDS011;50104;52.002;4.688;2023-04-07T14:17:51;15.48;;;3.80;;
47545;SDS011;50104;52.002;4.688;2023-04-07T14:22:52;10.48;;;3.35;;
47545;SDS011;50104;52.002;4.688;2023-04-07T14:27:53;10.35;;;3.50;;
47545;SDS011;50104;52.002;4.688;2023-04-07T14:32:54;8.80;;;3.45;;
47545;SDS011;50104;52.002;4.688;2023-04-07T14:37:56;5.32;;;2.80;;
47545;SDS011;50104;52.002;4.688;2023-04-07T14:42:57;11.45;;;3.55;;
47545;SDS011;50104;52.002;4.688;2023-04-07T14:47:58;9.90;;;3.35;;
47545;SDS011;50104;52.002;4.688;2023-04-07T14:52:59;8.35;;;2.53;;
47545;SDS011;50104;52.002;4.688;2023-04-07T14:58:01;7.93;;;3.05;;
47545;SDS011;50104;52.002;4.688;2023-04-07T15:03:02;9.90;;;3.47;;
47545;SDS011;50104;52.002;4.688;2023-04-07T15:08:03;8.00;;;2.95;;
47545;SDS011;50104;52.002;4.688;2023-04-07T15:13:04;11.23;;;2.95;;
47545;SDS011;50104;52.002;4.688;2023-04-07T15:18:05;9.00;;;2.92;;
47545;SDS011;50104;52.002;4.688;2023-04-07T15:23:06;6.40;;;2.88;;
47545;SDS011;50104;52.002;4.688;2023-04-07T15:28:07;11.65;;;3.50;;
47545;SDS011;50104;52.002;4.688;2023-04-07T15:33:08;7.07;;;3.30;;
47545;SDS011;50104;52.002;4.688;2023-04-07T15:38:09;7.55;;;2.58;;
47545;SDS011;50104;52.002;4.688;2023-04-07T15:43:10;8.43;;;3.20;;
47545;SDS011;50104;52.002;4.688;2023-04-07T15:48:11;12.00;;;3.08;;
47545;SDS011;50104;52.002;4.688;2023-04-07T15:53:12;9.05;;;3.15;;
47545;SDS011;50104;52.002;4.688;2023-04-07T15:58:13;8.27;;;3.25;;
47545;SDS011;50104;52.002;4.688;2023-04-07T16:03:14;9.02;;;3.85;;
47545;SDS011;50104;52.002;4.688;2023-04-07T16:08:15;10.27;;;3.60;;
47545;SDS011;50104;52.002;4.688;2023-04-07T16:13:16;10.15;;;4.10;;
47545;SDS011;50104;52.002;4.688;2023-04-07T16:18:17;12.90;;;4.00;;
47545;SDS011;50104;52.002;4.688;2023-04-07T16:23:18;6.65;;;3.65;;
47545;SDS011;50104;52.002;4.688;2023-04-07T16:28:19;16.13;;;4.25;;
47545;SDS011;50104;52.002;4.688;2023-04-07T16:33:20;8.48;;;4.13;;
47545;SDS011;50104;52.002;4.688;2023-04-07T16:38:22;8.98;;;3.65;;
47545;SDS011;50104;52.002;4.688;2023-04-07T16:43:23;11.20;;;3.50;;
47545;SDS011;50104;52.002;4.688;2023-04-07T16:48:25;10.52;;;4.38;;
47545;SDS011;50104;52.002;4.688;2023-04-07T16:53:25;9.52;;;4.55;;
47545;SDS011;50104;52.002;4.688;2023-04-07T16:58:26;8.95;;;3.67;;
47545;SDS011;50104;52.002;4.688;2023-04-07T17:03:27;5.35;;;2.88;;
47545;SDS011;50104;52.002;4.688;2023-04-07T17:08:28;8.00;;;4.00;;
47545;SDS011;50104;52.002;4.688;2023-04-07T17:13:29;14.27;;;4.95;;
47545;SDS011;50104;52.002;4.688;2023-04-07T17:18:30;10.45;;;3.60;;
47545;SDS011;50104;52.002;4.688;2023-04-07T17:23:32;12.38;;;4.18;;
47545;SDS011;50104;52.002;4.688;2023-04-07T17:28:33;9.50;;;4.18;;
47545;SDS011;50104;52.002;4.688;2023-04-07T17:33:34;9.07;;;3.60;;
47545;SDS011;50104;52.002;4.688;2023-04-07T17:38:35;12.38;;;4.22;;
47545;SDS011;50104;52.002;4.688;2023-04-07T17:43:35;14.85;;;5.05;;
47545;SDS011;50104;52.002;4.688;2023-04-07T17:48:36;18.45;;;5.13;;
47545;SDS011;50104;52.002;4.688;2023-04-07T17:53:37;10.65;;;4.95;;
47545;SDS011;50104;52.002;4.688;2023-04-07T17:58:39;14.05;;;5.72;;
47545;SDS011;50104;52.002;4.688;2023-04-07T18:03:40;10.70;;;4.07;;
47545;SDS011;50104;52.002;4.688;2023-04-07T18:08:43;13.43;;;5.50;;
47545;SDS011;50104;52.002;4.688;2023-04-07T18:13:46;11.93;;;4.32;;
47545;SDS011;50104;52.002;4.688;2023-04-07T18:18:47;9.18;;;4.20;;
47545;SDS011;50104;52.002;4.688;2023-04-07T18:23:48;9.18;;;4.20;;
47545;SDS011;50104;52.002;4.688;2023-04-07T18:28:49;13.43;;;4.95;;
47545;SDS011;50104;52.002;4.688;2023-04-07T18:33:50;13.52;;;4.40;;
47545;SDS011;50104;52.002;4.688;2023-04-07T18:38:51;15.25;;;4.72;;
47545;SDS011;50104;52.002;4.688;2023-04-07T18:43:52;14.45;;;5.32;;
47545;SDS011;50104;52.002;4.688;2023-04-07T18:48:53;10.50;;;4.32;;
47545;SDS011;50104;52.002;4.688;2023-04-07T18:53:53;15.65;;;4.75;;
47545;SDS011;50104;52.002;4.688;2023-04-07T18:58:54;11.68;;;4.78;;
47545;SDS011;50104;52.002;4.688;2023-04-07T19:03:55;11.65;;;5.07;;
47545;SDS011;50104;52.002;4.688;2023-04-07T19:08:59;12.60;;;6.22;;
47545;SDS011;50104;52.002;4.688;2023-04-07T19:14:00;10.13;;;5.45;;
47545;SDS011;50104;52.002;4.688;2023-04-07T19:19:01;14.32;;;5.80;;
47545;SDS011;50104;52.002;4.688;2023-04-07T19:24:02;13.57;;;6.03;;
47545;SDS011;50104;52.002;4.688;2023-04-07T19:29:03;14.75;;;5.72;;
47545;SDS011;50104;52.002;4.688;2023-04-07T19:34:04;13.52;;;5.75;;
47545;SDS011;50104;52.002;4.688;2023-04-07T19:39:04;17.30;;;5.65;;
47545;SDS011;50104;52.002;4.688;2023-04-07T19:44:05;18.80;;;5.55;;
47545;SDS011;50104;52.002;4.688;2023-04-07T19:49:07;8.85;;;5.70;;
47545;SDS011;50104;52.002;4.688;2023-04-07T19:54:07;13.05;;;5.63;;
47545;SDS011;50104;52.002;4.688;2023-04-07T19:59:08;13.75;;;6.32;;
47545;SDS011;50104;52.002;4.688;2023-04-07T20:04:09;12.13;;;6.20;;
47545;SDS011;50104;52.002;4.688;2023-04-07T20:09:10;18.00;;;6.00;;
47545;SDS011;50104;52.002;4.688;2023-04-07T20:14:11;14.57;;;6.07;;
47545;SDS011;50104;52.002;4.688;2023-04-07T20:19:11;16.15;;;6.75;;
47545;SDS011;50104;52.002;4.688;2023-04-07T20:24:12;15.50;;;7.07;;
47545;SDS011;50104;52.002;4.688;2023-04-07T20:29:13;11.45;;;6.70;;
47545;SDS011;50104;52.002;4.688;2023-04-07T20:34:14;9.77;;;5.25;;
47545;SDS011;50104;52.002;4.688;2023-04-07T20:39:15;13.52;;;6.45;;
47545;SDS011;50104;52.002;4.688;2023-04-07T20:44:16;12.68;;;5.85;;
47545;SDS011;50104;52.002;4.688;2023-04-07T20:49:17;12.85;;;6.13;;
47545;SDS011;50104;52.002;4.688;2023-04-07T20:54:18;13.57;;;5.97;;
47545;SDS011;50104;52.002;4.688;2023-04-07T20:59:19;15.02;;;7.28;;
47545;SDS011;50104;52.002;4.688;2023-04-07T21:04:20;10.93;;;5.55;;
47545;SDS011;50104;52.002;4.688;2023-04-07T21:09:23;16.85;;;6.78;;
47545;SDS011;50104;52.002;4.688;2023-04-07T21:14:24;22.27;;;7.78;;
47545;SDS011;50104;52.002;4.688;2023-04-07T21:19:25;13.23;;;7.78;;
47545;SDS011;50104;52.002;4.688;2023-04-07T21:24:26;19.17;;;8.35;;
47545;SDS011;50104;52.002;4.688;2023-04-07T21:29:28;14.52;;;9.13;;
47545;SDS011;50104;52.002;4.688;2023-04-07T21:34:30;21.13;;;10.20;;
47545;SDS011;50104;52.002;4.688;2023-04-07T21:39:31;19.77;;;10.68;;
47545;SDS011;50104;52.002;4.688;2023-04-07T21:44:32;19.55;;;10.75;;
47545;SDS011;50104;52.002;4.688;2023-04-07T21:49:33;23.55;;;11.30;;
47545;SDS011;50104;52.002;4.688;2023-04-07T21:54:35;26.98;;;11.48;;
47545;SDS011;50104;52.002;4.688;2023-04-07T21:59:35;18.48;;;11.13;;
47545;SDS011;50104;52.002;4.688;2023-04-07T22:04:36;22.55;;;12.25;;
47545;SDS011;50104;52.002;4.688;2023-04-07T22:09:52;18.55;;;11.18;;
47545;SDS011;50104;52.002;4.688;2023-04-07T22:14:53;25.75;;;11.20;;
47545;SDS011;50104;52.002;4.688;2023-04-07T22:19:57;22.23;;;11.13;;
47545;SDS011;50104;52.002;4.688;2023-04-07T22:24:58;19.38;;;10.55;;
47545;SDS011;50104;52.002;4.688;2023-04-07T22:29:59;22.42;;;11.38;;
47545;SDS011;50104;52.002;4.688;2023-04-07T22:35:14;23.00;;;11.13;;
47545;SDS011;50104;52.002;4.688;2023-04-07T22:40:30;19.33;;;10.18;;
47545;SDS011;50104;52.002;4.688;2023-04-07T22:45:31;26.48;;;12.23;;
47545;SDS011;50104;52.002;4.688;2023-04-07T22:50:32;25.48;;;11.07;;
47545;SDS011;50104;52.002;4.688;2023-04-07T22:55:33;19.77;;;11.85;;
47545;SDS011;50104;52.002;4.688;2023-04-07T23:00:34;20.55;;;11.50;;
47545;SDS011;50104;52.002;4.688;2023-04-07T23:05:35;19.63;;;11.35;;
47545;SDS011;50104;52.002;4.688;2023-04-07T23:10:36;17.42;;;10.90;;
47545;SDS011;50104;52.002;4.688;2023-04-07T23:15:37;20.50;;;11.57;;
47545;SDS011;50104;52.002;4.688;2023-04-07T23:20:38;27.20;;;12.45;;
47545;SDS011;50104;52.002;4.688;2023-04-07T23:25:38;21.75;;;12.20;;
47545;SDS011;50104;52.002;4.688;2023-04-07T23:30:39;20.30;;;11.88;;
47545;SDS011;50104;52.002;4.688;2023-04-07T23:35:40;24.23;;;12.02;;
47545;SDS011;50104;52.002;4.688;2023-04-07T23:40:41;25.05;;;13.18;;
47545;SDS011;50104;52.002;4.688;2023-04-07T23:45:42;30.60;;;13.90;;
47545;SDS011;50104;52.002;4.688;2023-04-07T23:50:43;20.13;;;12.05;;
47545;SDS011;50104;52.002;4.688;2023-04-07T23:55:45;25.77;;;13.32;;
